sensor_id;sensor_type;location;lat;lon;timestamp;temperature;humidity
40434;DHT22;26146;51.114;5.654;2023-07-02T00:00:40;18.70;99.90
40434;DHT22;26146;51.114;5.654;2023-07-02T00:04:41;18.50;99.90
40434;DHT22;26146;51.114;5.654;2023-07-02T00:08:42;18.40;99.90
40434;DHT22;26146;51.114;5.654;2023-07-02T00:12:43;18.50;99.90
40434;DHT22;26146;51.114;5.654;2023-07-02T00:16:45;18.40;99.90
40434;DHT22;26146;51.114;5.654;2023-07-02T00:20:46;18.50;99.90
40434;DHT22;26146;51.114;5.654;2023-07-02T00:24:48;18.40;99.90
40434;DHT22;26146;51.114;5.654;2023-07-02T00:28:52;18.40;99.90
40434;DHT22;26146;51.114;5.654;2023-07-02T00:32:53;18.40;99.90
40434;DHT22;26146;51.114;5.654;2023-07-02T00:36:55;18.40;99.90
40434;DHT22;26146;51.114;5.654;2023-07-02T00:40:56;18.20;99.90
40434;DHT22;26146;51.114;5.654;2023-07-02T00:44:57;18.10;99.90
40434;DHT22;26146;51.114;5.654;2023-07-02T00:49:04;18.00;99.90
40434;DHT22;26146;51.114;5.654;2023-07-02T00:53:06;18.10;99.90
40434;DHT22;26146;51.114;5.654;2023-07-02T00:57:07;18.00;99.90
40434;DHT22;26146;51.114;5.654;2023-07-02T01:01:08;18.10;99.90
40434;DHT22;26146;51.114;5.654;2023-07-02T01:05:19;18.10;99.90
40434;DHT22;26146;51.114;5.654;2023-07-02T01:09:22;18.00;99.90
40434;DHT22;26146;51.114;5.654;2023-07-02T01:13:24;18.00;99.90
40434;DHT22;26146;51.114;5.654;2023-07-02T01:17:27;18.00;99.90
40434;DHT22;26146;51.114;5.654;2023-07-02T01:21:30;18.00;99.90
40434;DHT22;26146;51.114;5.654;2023-07-02T01:25:31;18.10;99.90
40434;DHT22;26146;51.114;5.654;2023-07-02T01:29:32;18.00;99.90
40434;DHT22;26146;51.114;5.654;2023-07-02T01:33:33;18.10;99.90
40434;DHT22;26146;51.114;5.654;2023-07-02T01:37:34;18.00;99.90
40434;DHT22;26146;51.114;5.654;2023-07-02T01:41:44;18.00;99.90
40434;DHT22;26146;51.114;5.654;2023-07-02T01:45:45;18.10;99.90
40434;DHT22;26146;51.114;5.654;2023-07-02T01:49:46;18.00;99.90
40434;DHT22;26146;51.114;5.654;2023-07-02T01:53:47;17.90;99.90
40434;DHT22;26146;51.114;5.654;2023-07-02T01:57:48;18.00;99.90
40434;DHT22;26146;51.114;5.654;2023-07-02T02:01:50;18.00;99.90
40434;DHT22;26146;51.114;5.654;2023-07-02T02:05:51;18.00;99.90
40434;DHT22;26146;51.114;5.654;2023-07-02T02:09:52;17.90;99.90
40434;DHT22;26146;51.114;5.654;2023-07-02T02:13:53;18.00;99.90
40434;DHT22;26146;51.114;5.654;2023-07-02T02:17:54;18.00;99.90
40434;DHT22;26146;51.114;5.654;2023-07-02T02:21:56;17.90;99.90
40434;DHT22;26146;51.114;5.654;2023-07-02T02:25:57;18.00;99.90
40434;DHT22;26146;51.114;5.654;2023-07-02T02:29:58;18.10;99.90
40434;DHT22;26146;51.114;5.654;2023-07-02T02:33:59;18.00;99.90
40434;DHT22;26146;51.114;5.654;2023-07-02T02:38:04;18.00;99.90
40434;DHT22;26146;51.114;5.654;2023-07-02T02:42:05;17.90;99.90
40434;DHT22;26146;51.114;5.654;2023-07-02T02:46:06;17.70;99.90
40434;DHT22;26146;51.114;5.654;2023-07-02T02:50:07;17.80;99.90
40434;DHT22;26146;51.114;5.654;2023-07-02T02:54:10;17.70;99.90
40434;DHT22;26146;51.114;5.654;2023-07-02T02:58:11;17.60;99.90
40434;DHT22;26146;51.114;5.654;2023-07-02T03:02:12;17.70;99.90
40434;DHT22;26146;51.114;5.654;2023-07-02T03:06:14;17.60;99.90
40434;DHT22;26146;51.114;5.654;2023-07-02T03:10:15;17.70;99.90
40434;DHT22;26146;51.114;5.654;2023-07-02T03:14:17;17.60;99.90
40434;DHT22;26146;51.114;5.654;2023-07-02T03:18:18;17.50;99.90
40434;DHT22;26146;51.114;5.654;2023-07-02T03:22:19;17.40;99.90
40434;DHT22;26146;51.114;5.654;2023-07-02T03:26:20;17.50;99.90
40434;DHT22;26146;51.114;5.654;2023-07-02T03:30:22;17.40;99.90
40434;DHT22;26146;51.114;5.654;2023-07-02T03:34:23;17.50;99.90
40434;DHT22;26146;51.114;5.654;2023-07-02T03:38:24;17.40;99.90
40434;DHT22;26146;51.114;5.654;2023-07-02T03:42:25;17.40;99.90
40434;DHT22;26146;51.114;5.654;2023-07-02T03:46:26;17.40;99.90
40434;DHT22;26146;51.114;5.654;2023-07-02T03:50:27;17.50;99.90
40434;DHT22;26146;51.114;5.654;2023-07-02T03:54:28;17.50;99.90
40434;DHT22;26146;51.114;5.654;2023-07-02T03:58:29;17.60;99.90
40434;DHT22;26146;51.114;5.654;2023-07-02T04:02:30;17.70;99.90
40434;DHT22;26146;51.114;5.654;2023-07-02T04:06:32;17.60;99.90
40434;DHT22;26146;51.114;5.654;2023-07-02T04:10:34;17.60;99.90
40434;DHT22;26146;51.114;5.654;2023-07-02T04:14:35;17.60;99.90
40434;DHT22;26146;51.114;5.654;2023-07-02T04:18:36;17.70;99.90
40434;DHT22;26146;51.114;5.654;2023-07-02T04:22:37;17.80;99.90
40434;DHT22;26146;51.114;5.654;2023-07-02T04:26:39;17.70;99.90
40434;DHT22;26146;51.114;5.654;2023-07-02T04:30:43;17.70;99.90
40434;DHT22;26146;51.114;5.654;2023-07-02T04:34:44;17.80;99.90
40434;DHT22;26146;51.114;5.654;2023-07-02T04:38:45;17.90;99.90
40434;DHT22;26146;51.114;5.654;2023-07-02T04:42:47;18.20;99.90
40434;DHT22;26146;51.114;5.654;2023-07-02T04:46:48;18.40;99.90
40434;DHT22;26146;51.114;5.654;2023-07-02T04:50:49;18.60;99.90
40434;DHT22;26146;51.114;5.654;2023-07-02T04:54:50;18.90;99.90
40434;DHT22;26146;51.114;5.654;2023-07-02T04:58:52;18.90;99.90
40434;DHT22;26146;51.114;5.654;2023-07-02T05:02:52;19.20;99.90
40434;DHT22;26146;51.114;5.654;2023-07-02T05:06:53;19.20;99.90
40434;DHT22;26146;51.114;5.654;2023-07-02T05:10:55;19.30;99.90
40434;DHT22;26146;51.114;5.654;2023-07-02T05:14:56;19.40;99.90
40434;DHT22;26146;51.114;5.654;2023-07-02T05:18:57;19.40;99.90
40434;DHT22;26146;51.114;5.654;2023-07-02T05:22:58;19.50;99.90
40434;DHT22;26146;51.114;5.654;2023-07-02T05:26:59;19.90;99.90
40434;DHT22;26146;51.114;5.654;2023-07-02T05:31:00;20.10;99.90
40434;DHT22;26146;51.114;5.654;2023-07-02T05:35:01;20.10;99.90
40434;DHT22;26146;51.114;5.654;2023-07-02T05:39:02;20.20;99.90
40434;DHT22;26146;51.114;5.654;2023-07-02T05:43:03;20.40;99.90
40434;DHT22;26146;51.114;5.654;2023-07-02T05:47:04;20.50;99.90
40434;DHT22;26146;51.114;5.654;2023-07-02T05:51:05;20.50;99.90
40434;DHT22;26146;51.114;5.654;2023-07-02T05:55:08;20.70;99.90
40434;DHT22;26146;51.114;5.654;2023-07-02T05:59:11;20.60;99.90
40434;DHT22;26146;51.114;5.654;2023-07-02T06:03:16;20.60;99.90
40434;DHT22;26146;51.114;5.654;2023-07-02T06:07:20;20.80;99.90
40434;DHT22;26146;51.114;5.654;2023-07-02T06:11:21;21.10;99.90
40434;DHT22;26146;51.114;5.654;2023-07-02T06:15:22;20.70;99.90
40434;DHT22;26146;51.114;5.654;2023-07-02T06:19:23;21.10;99.90
40434;DHT22;26146;51.114;5.654;2023-07-02T06:23:25;21.20;99.90
40434;DHT22;26146;51.114;5.654;2023-07-02T06:27:26;21.20;99.90
40434;DHT22;26146;51.114;5.654;2023-07-02T06:31:27;21.30;99.90
40434;DHT22;26146;51.114;5.654;2023-07-02T06:35:28;21.30;99.90
40434;DHT22;26146;51.114;5.654;2023-07-02T06:39:28;21.80;99.90
40434;DHT22;26146;51.114;5.654;2023-07-02T06:43:30;21.40;99.90
40434;DHT22;26146;51.114;5.654;2023-07-02T06:47:31;21.40;99.90
40434;DHT22;26146;51.114;5.654;2023-07-02T06:51:32;20.40;99.90
40434;DHT22;26146;51.114;5.654;2023-07-02T06:55:35;20.00;99.90
40434;DHT22;26146;51.114;5.654;2023-07-02T06:59:36;20.60;99.90
40434;DHT22;26146;51.114;5.654;2023-07-02T07:03:37;21.30;99.90
40434;DHT22;26146;51.114;5.654;2023-07-02T07:07:38;21.70;99.90
40434;DHT22;26146;51.114;5.654;2023-07-02T07:11:39;21.80;99.90
40434;DHT22;26146;51.114;5.654;2023-07-02T07:15:40;22.50;99.90
40434;DHT22;26146;51.114;5.654;2023-07-02T07:19:42;22.70;99.90
40434;DHT22;26146;51.114;5.654;2023-07-02T07:23:43;22.80;99.90
40434;DHT22;26146;51.114;5.654;2023-07-02T07:27:44;22.20;99.90
40434;DHT22;26146;51.114;5.654;2023-07-02T07:31:45;21.40;99.90
40434;DHT22;26146;51.114;5.654;2023-07-02T07:35:46;21.70;99.90
40434;DHT22;26146;51.114;5.654;2023-07-02T07:39:47;21.40;99.90
40434;DHT22;26146;51.114;5.654;2023-07-02T07:43:49;21.00;99.90
40434;DHT22;26146;51.114;5.654;2023-07-02T07:47:50;21.70;99.90
40434;DHT22;26146;51.114;5.654;2023-07-02T07:51:50;22.00;99.90
40434;DHT22;26146;51.114;5.654;2023-07-02T07:55:55;21.80;99.90
40434;DHT22;26146;51.114;5.654;2023-07-02T07:59:56;21.70;99.90
40434;DHT22;26146;51.114;5.654;2023-07-02T08:03:57;20.80;99.90
40434;DHT22;26146;51.114;5.654;2023-07-02T08:07:58;21.00;99.90
40434;DHT22;26146;51.114;5.654;2023-07-02T08:11:59;21.00;99.90
40434;DHT22;26146;51.114;5.654;2023-07-02T08:16:00;21.40;99.90
40434;DHT22;26146;51.114;5.654;2023-07-02T08:20:01;21.80;99.90
40434;DHT22;26146;51.114;5.654;2023-07-02T08:24:03;22.00;99.90
40434;DHT22;26146;51.114;5.654;2023-07-02T08:28:04;22.40;99.90
40434;DHT22;26146;51.114;5.654;2023-07-02T08:32:05;22.80;99.90
40434;DHT22;26146;51.114;5.654;2023-07-02T08:36:06;22.90;99.90
40434;DHT22;26146;51.114;5.654;2023-07-02T08:40:16;23.80;99.90
40434;DHT22;26146;51.114;5.654;2023-07-02T08:44:20;24.50;97.90
40434;DHT22;26146;51.114;5.654;2023-07-02T08:48:22;24.40;97.60
40434;DHT22;26146;51.114;5.654;2023-07-02T08:52:24;23.60;96.40
40434;DHT22;26146;51.114;5.654;2023-07-02T08:56:25;22.40;98.20
40434;DHT22;26146;51.114;5.654;2023-07-02T09:00:27;21.80;99.00
40434;DHT22;26146;51.114;5.654;2023-07-02T09:04:31;21.20;99.90
40434;DHT22;26146;51.114;5.654;2023-07-02T09:08:33;20.90;99.90
40434;DHT22;26146;51.114;5.654;2023-07-02T09:12:37;21.10;99.90
40434;DHT22;26146;51.114;5.654;2023-07-02T09:16:39;21.50;99.90
40434;DHT22;26146;51.114;5.654;2023-07-02T09:20:42;22.10;99.70
40434;DHT22;26146;51.114;5.654;2023-07-02T09:24:51;21.30;99.90
40434;DHT22;26146;51.114;5.654;2023-07-02T09:29:00;20.70;99.90
40434;DHT22;26146;51.114;5.654;2023-07-02T09:33:08;20.20;99.90
40434;DHT22;26146;51.114;5.654;2023-07-02T09:37:09;20.40;99.90
40434;DHT22;26146;51.114;5.654;2023-07-02T09:41:10;20.70;99.90
40434;DHT22;26146;51.114;5.654;2023-07-02T09:45:12;21.70;99.90
40434;DHT22;26146;51.114;5.654;2023-07-02T09:49:14;22.60;98.80
40434;DHT22;26146;51.114;5.654;2023-07-02T09:53:17;22.50;97.30
40434;DHT22;26146;51.114;5.654;2023-07-02T09:57:18;22.90;95.70
40434;DHT22;26146;51.114;5.654;2023-07-02T10:01:20;23.80;93.20
40434;DHT22;26146;51.114;5.654;2023-07-02T10:05:28;24.10;87.50
40434;DHT22;26146;51.114;5.654;2023-07-02T10:09:37;23.10;90.20
40434;DHT22;26146;51.114;5.654;2023-07-02T10:13:40;22.60;91.50
40434;DHT22;26146;51.114;5.654;2023-07-02T10:17:42;22.70;91.00
40434;DHT22;26146;51.114;5.654;2023-07-02T10:21:43;22.70;90.80
40434;DHT22;26146;51.114;5.654;2023-07-02T10:25:46;22.20;91.50
40434;DHT22;26146;51.114;5.654;2023-07-02T10:29:50;22.20;91.80
40434;DHT22;26146;51.114;5.654;2023-07-02T10:33:51;21.60;92.30
40434;DHT22;26146;51.114;5.654;2023-07-02T10:37:52;21.10;94.10
40434;DHT22;26146;51.114;5.654;2023-07-02T10:42:02;21.40;94.20
40434;DHT22;26146;51.114;5.654;2023-07-02T10:46:04;21.60;94.70
40434;DHT22;26146;51.114;5.654;2023-07-02T10:54:16;21.80;93.10
40434;DHT22;26146;51.114;5.654;2023-07-02T10:58:18;22.20;93.80
40434;DHT22;26146;51.114;5.654;2023-07-02T11:02:19;22.60;93.20
40434;DHT22;26146;51.114;5.654;2023-07-02T11:06:20;23.10;92.00
40434;DHT22;26146;51.114;5.654;2023-07-02T11:10:21;23.20;93.40
40434;DHT22;26146;51.114;5.654;2023-07-02T11:14:35;22.90;91.00
40434;DHT22;26146;51.114;5.654;2023-07-02T11:18:36;23.00;91.70
40434;DHT22;26146;51.114;5.654;2023-07-02T11:22:38;22.60;91.70
40434;DHT22;26146;51.114;5.654;2023-07-02T11:26:40;22.80;91.10
40434;DHT22;26146;51.114;5.654;2023-07-02T11:30:45;23.00;92.00
40434;DHT22;26146;51.114;5.654;2023-07-02T11:34:53;22.70;92.00
40434;DHT22;26146;51.114;5.654;2023-07-02T11:38:55;22.70;92.70
40434;DHT22;26146;51.114;5.654;2023-07-02T11:42:56;22.60;92.70
40434;DHT22;26146;51.114;5.654;2023-07-02T11:46:57;22.50;93.50
40434;DHT22;26146;51.114;5.654;2023-07-02T11:50:59;22.20;92.90
40434;DHT22;26146;51.114;5.654;2023-07-02T11:54:59;22.20;92.50
40434;DHT22;26146;51.114;5.654;2023-07-02T11:59:00;22.40;92.70
40434;DHT22;26146;51.114;5.654;2023-07-02T12:03:02;22.40;92.50
40434;DHT22;26146;51.114;5.654;2023-07-02T12:07:03;22.70;92.90
40434;DHT22;26146;51.114;5.654;2023-07-02T12:11:04;22.90;91.80
40434;DHT22;26146;51.114;5.654;2023-07-02T12:15:05;23.00;92.50
40434;DHT22;26146;51.114;5.654;2023-07-02T12:19:07;23.20;92.20
40434;DHT22;26146;51.114;5.654;2023-07-02T12:23:08;23.30;94.00
40434;DHT22;26146;51.114;5.654;2023-07-02T12:27:10;23.40;92.50
40434;DHT22;26146;51.114;5.654;2023-07-02T12:31:11;23.30;93.70
40434;DHT22;26146;51.114;5.654;2023-07-02T12:35:14;23.30;92.60
40434;DHT22;26146;51.114;5.654;2023-07-02T12:39:15;23.60;93.60
40434;DHT22;26146;51.114;5.654;2023-07-02T12:43:16;23.20;93.30
40434;DHT22;26146;51.114;5.654;2023-07-02T12:47:17;22.90;93.90
40434;DHT22;26146;51.114;5.654;2023-07-02T12:51:18;22.70;94.00
40434;DHT22;26146;51.114;5.654;2023-07-02T12:55:19;22.90;93.60
40434;DHT22;26146;51.114;5.654;2023-07-02T12:59:20;22.70;93.20
40434;DHT22;26146;51.114;5.654;2023-07-02T13:03:22;22.50;92.60
40434;DHT22;26146;51.114;5.654;2023-07-02T13:07:24;22.70;93.50
40434;DHT22;26146;51.114;5.654;2023-07-02T13:11:26;22.70;93.20
40434;DHT22;26146;51.114;5.654;2023-07-02T13:15:27;22.60;92.30
40434;DHT22;26146;51.114;5.654;2023-07-02T13:19:29;22.60;92.00
40434;DHT22;26146;51.114;5.654;2023-07-02T13:23:29;22.80;93.60
40434;DHT22;26146;51.114;5.654;2023-07-02T13:27:31;22.90;92.90
40434;DHT22;26146;51.114;5.654;2023-07-02T13:31:31;22.70;92.80
40434;DHT22;26146;51.114;5.654;2023-07-02T13:35:32;23.00;93.10
40434;DHT22;26146;51.114;5.654;2023-07-02T13:39:33;22.80;92.50
40434;DHT22;26146;51.114;5.654;2023-07-02T13:43:35;22.90;92.10
40434;DHT22;26146;51.114;5.654;2023-07-02T13:47:36;22.80;91.70
40434;DHT22;26146;51.114;5.654;2023-07-02T13:51:37;22.60;92.30
40434;DHT22;26146;51.114;5.654;2023-07-02T13:55:38;23.10;92.70
40434;DHT22;26146;51.114;5.654;2023-07-02T13:59:39;23.10;92.10
40434;DHT22;26146;51.114;5.654;2023-07-02T14:03:40;23.10;91.70
40434;DHT22;26146;51.114;5.654;2023-07-02T14:07:41;23.00;91.60
40434;DHT22;26146;51.114;5.654;2023-07-02T14:11:43;23.20;92.70
40434;DHT22;26146;51.114;5.654;2023-07-02T14:15:44;23.50;92.40
40434;DHT22;26146;51.114;5.654;2023-07-02T14:19:45;23.80;91.50
40434;DHT22;26146;51.114;5.654;2023-07-02T14:23:46;23.40;91.20
40434;DHT22;26146;51.114;5.654;2023-07-02T14:27:47;23.50;92.10
40434;DHT22;26146;51.114;5.654;2023-07-02T14:31:48;23.50;91.50
40434;DHT22;26146;51.114;5.654;2023-07-02T14:35:49;23.20;91.60
40434;DHT22;26146;51.114;5.654;2023-07-02T14:39:50;23.20;91.20
40434;DHT22;26146;51.114;5.654;2023-07-02T14:43:51;23.30;91.20
40434;DHT22;26146;51.114;5.654;2023-07-02T14:47:52;23.70;91.30
40434;DHT22;26146;51.114;5.654;2023-07-02T14:51:53;23.40;90.10
40434;DHT22;26146;51.114;5.654;2023-07-02T14:55:58;23.40;92.30
40434;DHT22;26146;51.114;5.654;2023-07-02T14:59:59;23.50;91.30
40434;DHT22;26146;51.114;5.654;2023-07-02T15:04:00;23.30;91.70
40434;DHT22;26146;51.114;5.654;2023-07-02T15:08:01;23.60;91.60
40434;DHT22;26146;51.114;5.654;2023-07-02T15:12:02;23.90;91.60
40434;DHT22;26146;51.114;5.654;2023-07-02T15:16:04;24.20;90.50
40434;DHT22;26146;51.114;5.654;2023-07-02T15:20:05;24.40;89.70
40434;DHT22;26146;51.114;5.654;2023-07-02T15:24:06;23.70;90.40
40434;DHT22;26146;51.114;5.654;2023-07-02T15:28:10;23.20;91.70
40434;DHT22;26146;51.114;5.654;2023-07-02T15:32:13;23.10;91.40
40434;DHT22;26146;51.114;5.654;2023-07-02T15:36:14;23.20;91.50
40434;DHT22;26146;51.114;5.654;2023-07-02T15:40:15;23.50;91.50
40434;DHT22;26146;51.114;5.654;2023-07-02T15:44:16;23.90;90.40
40434;DHT22;26146;51.114;5.654;2023-07-02T15:48:18;23.60;90.50
40434;DHT22;26146;51.114;5.654;2023-07-02T15:52:20;23.90;91.50
40434;DHT22;26146;51.114;5.654;2023-07-02T15:56:21;24.00;90.50
40434;DHT22;26146;51.114;5.654;2023-07-02T16:00:22;24.00;90.60
40434;DHT22;26146;51.114;5.654;2023-07-02T16:04:23;23.70;90.30
40434;DHT22;26146;51.114;5.654;2023-07-02T16:08:24;23.50;90.50
40434;DHT22;26146;51.114;5.654;2023-07-02T16:12:27;23.50;91.40
40434;DHT22;26146;51.114;5.654;2023-07-02T16:16:29;23.80;91.50
40434;DHT22;26146;51.114;5.654;2023-07-02T16:20:30;24.20;90.80
40434;DHT22;26146;51.114;5.654;2023-07-02T16:24:33;24.30;91.20
40434;DHT22;26146;51.114;5.654;2023-07-02T16:28:35;24.40;89.30
40434;DHT22;26146;51.114;5.654;2023-07-02T16:32:37;24.40;90.50
40434;DHT22;26146;51.114;5.654;2023-07-02T16:36:38;24.50;90.10
40434;DHT22;26146;51.114;5.654;2023-07-02T16:40:38;24.60;90.20
40434;DHT22;26146;51.114;5.654;2023-07-02T16:44:39;24.70;90.50
40434;DHT22;26146;51.114;5.654;2023-07-02T16:48:40;24.50;90.40
40434;DHT22;26146;51.114;5.654;2023-07-02T16:52:44;24.80;90.10
40434;DHT22;26146;51.114;5.654;2023-07-02T16:56:51;24.90;89.40
40434;DHT22;26146;51.114;5.654;2023-07-02T17:00:59;24.70;89.60
40434;DHT22;26146;51.114;5.654;2023-07-02T17:05:00;24.70;90.10
40434;DHT22;26146;51.114;5.654;2023-07-02T17:13:21;24.50;90.10
40434;DHT22;26146;51.114;5.654;2023-07-02T17:17:24;24.50;90.20
40434;DHT22;26146;51.114;5.654;2023-07-02T17:21:27;24.20;90.70
40434;DHT22;26146;51.114;5.654;2023-07-02T17:25:28;24.50;90.80
40434;DHT22;26146;51.114;5.654;2023-07-02T17:29:30;24.70;90.50
40434;DHT22;26146;51.114;5.654;2023-07-02T17:33:32;24.80;90.70
40434;DHT22;26146;51.114;5.654;2023-07-02T17:37:33;24.60;90.40
40434;DHT22;26146;51.114;5.654;2023-07-02T17:41:33;24.60;90.80
40434;DHT22;26146;51.114;5.654;2023-07-02T17:45:34;24.50;90.70
40434;DHT22;26146;51.114;5.654;2023-07-02T17:49:37;24.70;90.40
40434;DHT22;26146;51.114;5.654;2023-07-02T17:53:39;24.50;90.60
40434;DHT22;26146;51.114;5.654;2023-07-02T17:57:40;24.40;90.90
40434;DHT22;26146;51.114;5.654;2023-07-02T18:01:46;24.10;91.60
40434;DHT22;26146;51.114;5.654;2023-07-02T18:05:47;24.10;91.20
40434;DHT22;26146;51.114;5.654;2023-07-02T18:09:50;24.10;91.70
40434;DHT22;26146;51.114;5.654;2023-07-02T18:13:52;24.10;91.10
40434;DHT22;26146;51.114;5.654;2023-07-02T18:17:53;23.70;90.80
40434;DHT22;26146;51.114;5.654;2023-07-02T18:21:54;23.50;90.60
40434;DHT22;26146;51.114;5.654;2023-07-02T18:26:01;22.90;91.50
40434;DHT22;26146;51.114;5.654;2023-07-02T18:30:07;22.70;91.20
40434;DHT22;26146;51.114;5.654;2023-07-02T18:34:08;22.20;91.20
40434;DHT22;26146;51.114;5.654;2023-07-02T18:38:09;22.00;92.10
40434;DHT22;26146;51.114;5.654;2023-07-02T18:42:10;21.70;92.60
40434;DHT22;26146;51.114;5.654;2023-07-02T18:46:11;21.50;92.70
40434;DHT22;26146;51.114;5.654;2023-07-02T18:50:12;21.50;92.90
40434;DHT22;26146;51.114;5.654;2023-07-02T18:54:14;21.40;93.40
40434;DHT22;26146;51.114;5.654;2023-07-02T18:58:15;21.10;93.30
40434;DHT22;26146;51.114;5.654;2023-07-02T19:02:16;21.10;93.70
40434;DHT22;26146;51.114;5.654;2023-07-02T19:06:17;21.00;93.40
40434;DHT22;26146;51.114;5.654;2023-07-02T19:10:18;21.00;93.40
40434;DHT22;26146;51.114;5.654;2023-07-02T19:14:19;21.10;93.40
40434;DHT22;26146;51.114;5.654;2023-07-02T19:18:21;21.10;93.20
40434;DHT22;26146;51.114;5.654;2023-07-02T19:22:24;20.90;93.60
40434;DHT22;26146;51.114;5.654;2023-07-02T19:26:25;20.70;94.10
40434;DHT22;26146;51.114;5.654;2023-07-02T19:30:26;20.70;93.90
40434;DHT22;26146;51.114;5.654;2023-07-02T19:34:29;20.80;93.60
40434;DHT22;26146;51.114;5.654;2023-07-02T19:38:30;20.80;93.60
40434;DHT22;26146;51.114;5.654;2023-07-02T19:42:31;20.80;94.00
40434;DHT22;26146;51.114;5.654;2023-07-02T19:46:33;20.70;93.90
40434;DHT22;26146;51.114;5.654;2023-07-02T19:50:34;20.80;94.10
40434;DHT22;26146;51.114;5.654;2023-07-02T19:54:35;20.60;94.20
40434;DHT22;26146;51.114;5.654;2023-07-02T19:58:37;20.60;93.90
40434;DHT22;26146;51.114;5.654;2023-07-02T20:02:40;20.50;93.90
40434;DHT22;26146;51.114;5.654;2023-07-02T20:06:41;20.30;93.90
40434;DHT22;26146;51.114;5.654;2023-07-02T20:10:42;19.90;94.60
40434;DHT22;26146;51.114;5.654;2023-07-02T20:14:43;20.00;94.80
40434;DHT22;26146;51.114;5.654;2023-07-02T20:18:47;20.20;94.60
40434;DHT22;26146;51.114;5.654;2023-07-02T20:22:49;20.20;94.30
40434;DHT22;26146;51.114;5.654;2023-07-02T20:26:55;20.20;94.20
40434;DHT22;26146;51.114;5.654;2023-07-02T20:30:56;20.10;93.50
40434;DHT22;26146;51.114;5.654;2023-07-02T20:35:02;20.00;93.60
40434;DHT22;26146;51.114;5.654;2023-07-02T20:39:03;19.70;93.80
40434;DHT22;26146;51.114;5.654;2023-07-02T20:43:05;19.60;93.60
40434;DHT22;26146;51.114;5.654;2023-07-02T20:47:11;19.40;93.90
40434;DHT22;26146;51.114;5.654;2023-07-02T20:51:12;19.40;93.60
40434;DHT22;26146;51.114;5.654;2023-07-02T20:55:13;19.30;93.60
40434;DHT22;26146;51.114;5.654;2023-07-02T20:59:14;19.10;94.00
40434;DHT22;26146;51.114;5.654;2023-07-02T21:03:16;19.10;94.00
40434;DHT22;26146;51.114;5.654;2023-07-02T21:07:17;18.90;94.70
40434;DHT22;26146;51.114;5.654;2023-07-02T21:11:18;18.80;94.80
40434;DHT22;26146;51.114;5.654;2023-07-02T21:15:19;18.70;95.20
40434;DHT22;26146;51.114;5.654;2023-07-02T21:19:20;18.50;95.70
40434;DHT22;26146;51.114;5.654;2023-07-02T21:23:21;18.50;95.80
40434;DHT22;26146;51.114;5.654;2023-07-02T21:27:22;18.30;96.20
40434;DHT22;26146;51.114;5.654;2023-07-02T21:31:23;18.20;96.40
40434;DHT22;26146;51.114;5.654;2023-07-02T21:35:25;18.20;96.60
40434;DHT22;26146;51.114;5.654;2023-07-02T21:39:25;18.10;97.10
40434;DHT22;26146;51.114;5.654;2023-07-02T21:43:26;18.30;96.80
40434;DHT22;26146;51.114;5.654;2023-07-02T21:47:27;18.20;96.90
40434;DHT22;26146;51.114;5.654;2023-07-02T21:51:31;18.20;97.10
40434;DHT22;26146;51.114;5.654;2023-07-02T21:55:32;18.10;97.30
40434;DHT22;26146;51.114;5.654;2023-07-02T21:59:33;18.10;97.50
40434;DHT22;26146;51.114;5.654;2023-07-02T22:03:34;18.00;97.70
40434;DHT22;26146;51.114;5.654;2023-07-02T22:07:35;18.10;97.80
40434;DHT22;26146;51.114;5.654;2023-07-02T22:11:36;18.00;97.70
40434;DHT22;26146;51.114;5.654;2023-07-02T22:15:37;18.00;98.00
40434;DHT22;26146;51.114;5.654;2023-07-02T22:19:38;17.80;98.10
40434;DHT22;26146;51.114;5.654;2023-07-02T22:23:39;17.60;98.40
40434;DHT22;26146;51.114;5.654;2023-07-02T22:27:41;17.60;98.50
40434;DHT22;26146;51.114;5.654;2023-07-02T22:31:42;17.50;98.80
40434;DHT22;26146;51.114;5.654;2023-07-02T22:35:43;17.60;98.80
40434;DHT22;26146;51.114;5.654;2023-07-02T22:39:44;17.40;99.40
40434;DHT22;26146;51.114;5.654;2023-07-02T22:43:45;17.40;99.10
40434;DHT22;26146;51.114;5.654;2023-07-02T22:47:46;17.30;99.20
40434;DHT22;26146;51.114;5.654;2023-07-02T22:51:50;17.30;99.40
40434;DHT22;26146;51.114;5.654;2023-07-02T22:55:51;17.20;99.70
40434;DHT22;26146;51.114;5.654;2023-07-02T22:59:52;17.10;99.90
40434;DHT22;26146;51.114;5.654;2023-07-02T23:03:53;17.00;99.90
40434;DHT22;26146;51.114;5.654;2023-07-02T23:07:54;17.00;99.90
40434;DHT22;26146;51.114;5.654;2023-07-02T23:11:55;17.00;99.90
40434;DHT22;26146;51.114;5.654;2023-07-02T23:15:56;16.90;99.90
40434;DHT22;26146;51.114;5.654;2023-07-02T23:19:57;16.80;99.90
40434;DHT22;26146;51.114;5.654;2023-07-02T23:23:58;16.70;99.90
40434;DHT22;26146;51.114;5.654;2023-07-02T23:27:59;16.60;99.90
40434;DHT22;26146;51.114;5.654;2023-07-02T23:32:03;16.70;99.90
40434;DHT22;26146;51.114;5.654;2023-07-02T23:36:04;16.60;99.90
40434;DHT22;26146;51.114;5.654;2023-07-02T23:40:06;16.50;99.90
40434;DHT22;26146;51.114;5.654;2023-07-02T23:44:15;16.50;99.90
40434;DHT22;26146;51.114;5.654;2023-07-02T23:48:16;16.50;99.90
40434;DHT22;26146;51.114;5.654;2023-07-02T23:52:17;16.50;99.90
40434;DHT22;26146;51.114;5.654;2023-07-02T23:56:18;16.50;99.90
